Time;durP1;ratioP1;P1;durP2;ratioP2;P2;SDS_P1;SDS_P2;PMS_P1;PMS_P2;Temp;Humidity;BMP_temperature;BMP_pressure;BME280_temperature;BME280_humidity;BME280_pressure;Samples;Min_cycle;Max_cycle;Signal;HPM_P1;HPM_P2
2023/03/25 00:00:21;;;;;;;8.18;0.90;;;9.80;99.90;;;;;;4764649;30;20058;-87
2023/03/25 00:02:49;;;;;;;7.35;1.52;;;9.70;99.90;;;;;;4779517;30;20055;-87
2023/03/25 00:05:17;;;;;;;10.25;1.00;;;9.80;99.90;;;;;;4753425;30;20521;-87
2023/03/25 00:07:44;;;;;;;13.00;1.73;;;9.80;99.90;;;;;;4769757;30;20059;-86
2023/03/25 00:10:11;;;;;;;6.05;1.80;;;9.80;99.90;;;;;;4760277;30;20087;-87
2023/03/25 00:12:39;;;;;;;8.10;1.73;;;9.80;99.90;;;;;;4753285;30;20483;-87
2023/03/25 00:15:06;;;;;;;7.38;0.88;;;9.80;99.90;;;;;;4767263;30;20077;-87
2023/03/25 00:17:32;;;;;;;8.25;1.30;;;9.80;99.90;;;;;;4770016;30;20043;-87
2023/03/25 00:19:59;;;;;;;13.05;0.80;;;9.80;99.90;;;;;;4760278;30;20508;-88
2023/03/25 00:22:26;;;;;;;10.18;1.00;;;9.80;99.90;;;;;;4773441;30;20494;-87
2023/03/25 00:24:51;;;;;;;10.32;1.05;;;10.00;99.90;;;;;;4762935;30;20074;-87
2023/03/25 00:27:18;;;;;;;11.38;0.80;;;9.80;99.90;;;;;;4776355;30;20580;-87
2023/03/25 00:29:45;;;;;;;11.80;1.27;;;9.80;99.90;;;;;;4769882;30;20380;-86
2023/03/25 00:32:15;;;;;;;9.55;2.10;;;9.80;99.90;;;;;;4767278;30;20056;-87
2023/03/25 00:34:46;;;;;;;7.47;1.02;;;10.40;99.90;;;;;;4769497;30;20051;-86
2023/03/25 00:37:16;;;;;;;11.52;0.90;;;10.00;99.90;;;;;;4769231;30;20068;-87
2023/03/25 00:39:43;;;;;;;8.45;0.80;;;9.80;99.90;;;;;;4770004;30;20097;-86
2023/03/25 00:42:10;;;;;;;9.88;1.08;;;9.90;99.90;;;;;;4776085;30;20063;-87
2023/03/25 00:44:36;;;;;;;15.00;1.80;;;9.80;99.90;;;;;;4763777;30;20062;-87
2023/03/25 00:47:02;;;;;;;9.60;1.05;;;9.80;99.90;;;;;;4747958;30;20051;-87
2023/03/25 00:49:27;;;;;;;5.75;0.63;;;9.80;99.90;;;;;;4738946;30;20109;-87
2023/03/25 00:51:55;;;;;;;8.25;1.10;;;9.80;99.90;;;;;;4766335;30;20448;-87
2023/03/25 00:54:22;;;;;;;12.00;1.52;;;9.70;99.90;;;;;;4774827;30;20124;-87
2023/03/25 00:56:49;;;;;;;8.90;0.93;;;9.90;99.90;;;;;;4765177;30;20064;-86
2023/03/25 00:59:15;;;;;;;8.20;2.33;;;9.70;99.90;;;;;;4769501;30;20476;-86
2023/03/25 01:01:42;;;;;;;6.22;1.13;;;9.70;99.90;;;;;;4753232;30;20060;-86
2023/03/25 01:04:11;;;;;;;11.50;0.95;;;9.70;99.90;;;;;;4766537;30;20047;-86
2023/03/25 01:06:43;;;;;;;7.70;1.00;;;9.70;99.90;;;;;;4769037;30;20079;-86
2023/03/25 01:09:15;;;;;;;5.07;0.75;;;10.00;99.90;;;;;;4752749;30;20059;-86
2023/03/25 01:11:42;;;;;;;13.07;0.98;;;9.70;99.90;;;;;;4768704;30;20490;-86
2023/03/25 01:14:13;;;;;;;7.97;1.00;;;10.20;99.90;;;;;;4768134;30;20102;-87
2023/03/25 01:16:39;;;;;;;6.93;0.82;;;9.60;99.90;;;;;;4760446;30;20505;-87
2023/03/25 01:19:05;;;;;;;5.90;1.30;;;9.50;99.90;;;;;;4766059;30;20066;-86
2023/03/25 01:21:34;;;;;;;7.13;1.10;;;9.80;99.90;;;;;;4740995;30;20048;-86
2023/03/25 01:23:59;;;;;;;14.02;2.08;;;9.50;99.90;;;;;;4768768;30;20051;-86
2023/03/25 01:26:25;;;;;;;7.95;1.35;;;9.50;99.90;;;;;;4770573;30;20142;-86
2023/03/25 01:28:52;;;;;;;8.07;1.10;;;9.40;99.90;;;;;;4771378;30;20048;-86
2023/03/25 01:31:21;;;;;;;9.63;0.88;;;9.40;99.90;;;;;;4779254;30;20134;-87
2023/03/25 01:33:47;;;;;;;9.45;2.15;;;9.30;99.90;;;;;;4767466;30;20378;-86
2023/03/25 01:36:14;;;;;;;6.53;0.70;;;9.20;99.90;;;;;;4774945;30;20410;-85
2023/03/25 01:38:40;;;;;;;10.13;1.45;;;9.20;99.90;;;;;;4771761;30;20486;-86
2023/03/25 01:41:07;;;;;;;11.05;1.42;;;9.10;99.90;;;;;;4779100;30;20072;-86
2023/03/25 01:43:33;;;;;;;6.10;1.00;;;9.10;99.90;;;;;;4771621;30;20054;-85
2023/03/25 01:45:59;;;;;;;9.98;1.00;;;9.70;99.90;;;;;;4772002;30;20056;-85
2023/03/25 01:48:34;;;;;;;11.82;1.42;;;9.60;99.90;;;;;;4777611;30;20134;-86
2023/03/25 01:51:19;;;;;;;9.45;1.17;;;9.00;99.90;;;;;;4766784;30;20055;-85
2023/03/25 01:53:45;;;;;;;11.73;1.77;;;9.00;99.90;;;;;;4772380;30;20134;-86
2023/03/25 01:56:14;;;;;;;7.20;1.50;;;9.00;99.90;;;;;;4775523;30;20055;-86
2023/03/25 01:58:41;;;;;;;11.27;1.25;;;9.00;99.90;;;;;;4773084;30;20055;-87
2023/03/25 02:01:12;;;;;;;8.48;1.17;;;9.00;99.90;;;;;;4772401;30;20050;-87
2023/03/25 02:03:45;;;;;;;12.88;1.30;;;8.90;99.90;;;;;;4762560;30;20062;-86
2023/03/25 02:06:25;;;;;;;16.00;2.30;;;9.60;99.90;;;;;;4776870;30;20079;-86
2023/03/25 02:08:53;;;;;;;11.75;1.65;;;9.50;99.90;;;;;;4778301;30;20063;-86
2023/03/25 02:11:19;;;;;;;6.63;1.50;;;8.90;99.90;;;;;;4768762;30;20053;-86
2023/03/25 02:13:45;;;;;;;5.32;0.73;;;8.90;99.90;;;;;;4771770;30;20047;-87
2023/03/25 02:16:35;;;;;;;6.47;1.00;;;8.80;99.90;;;;;;4771440;30;20464;-86
2023/03/25 02:19:14;;;;;;;11.02;1.20;;;8.80;99.90;;;;;;4765277;30;20047;-85
2023/03/25 02:22:01;;;;;;;14.85;1.92;;;8.80;99.90;;;;;;4771608;30;20051;-86
2023/03/25 02:25:00;;;;;;;7.63;0.98;;;8.80;99.90;;;;;;4778632;29;20396;-85
2023/03/25 02:27:51;;;;;;;12.23;1.50;;;8.80;99.90;;;;;;4773878;30;20055;-86
2023/03/25 02:30:50;;;;;;;11.85;1.88;;;8.70;99.90;;;;;;4766478;30;20097;-85
2023/03/25 02:33:40;;;;;;;10.75;1.25;;;8.70;99.90;;;;;;4761249;30;20134;-85
2023/03/25 02:36:20;;;;;;;15.50;1.27;;;8.70;99.90;;;;;;4771530;30;20398;-85
2023/03/25 02:38:56;;;;;;;18.85;1.83;;;8.70;99.90;;;;;;4761216;30;20062;-86
2023/03/25 02:41:45;;;;;;;10.68;1.80;;;8.70;99.90;;;;;;4778755;30;20093;-86
2023/03/25 02:44:17;;;;;;;12.68;1.90;;;9.40;99.90;;;;;;4764886;30;20183;-86
2023/03/25 02:46:53;;;;;;;16.50;2.40;;;8.70;99.90;;;;;;4770681;30;20062;-86
2023/03/25 02:49:32;;;;;;;11.63;1.23;;;8.70;99.90;;;;;;4776802;30;20044;-86
2023/03/25 02:52:07;;;;;;;13.70;1.70;;;8.70;99.90;;;;;;4768636;30;20054;-86
2023/03/25 02:54:35;;;;;;;12.75;1.92;;;8.70;99.90;;;;;;4766726;29;20066;-85
2023/03/25 02:57:02;;;;;;;10.60;1.80;;;8.70;99.90;;;;;;4770266;30;20135;-86
2023/03/25 02:59:32;;;;;;;15.80;1.20;;;8.80;99.90;;;;;;4770817;30;20054;-86
2023/03/25 03:02:02;;;;;;;12.48;1.77;;;8.70;99.90;;;;;;4776421;30;20051;-86
2023/03/25 03:04:28;;;;;;;9.38;1.40;;;9.10;99.90;;;;;;4777584;30;20097;-86
2023/03/25 03:06:55;;;;;;;12.82;2.33;;;9.20;99.90;;;;;;4762103;30;20457;-86
2023/03/25 03:09:59;;;;;;;12.45;1.40;;;8.90;99.90;;;;;;4771368;30;20501;-86
2023/03/25 03:12:36;;;;;;;18.77;1.80;;;8.70;99.90;;;;;;4666595;30;20066;-86
2023/03/25 03:15:19;;;;;;;10.48;1.83;;;8.80;99.90;;;;;;4689115;30;20469;-86
2023/03/25 03:17:59;;;;;;;9.27;1.40;;;8.70;99.90;;;;;;4683687;30;20473;-86
2023/03/25 03:20:38;;;;;;;13.93;2.15;;;8.70;99.90;;;;;;4675377;30;20113;-85
2023/03/25 03:23:09;;;;;;;14.07;2.33;;;9.60;99.90;;;;;;4689084;30;20520;-86
2023/03/25 03:25:46;;;;;;;18.55;2.17;;;8.80;99.90;;;;;;4685618;30;20137;-87
2023/03/25 03:28:31;;;;;;;12.13;1.30;;;9.10;99.90;;;;;;4675671;30;20058;-86
2023/03/25 03:31:06;;;;;;;9.77;1.42;;;8.80;99.90;;;;;;4690017;30;20474;-86
2023/03/25 03:33:35;;;;;;;14.60;1.20;;;8.90;99.90;;;;;;4670560;30;20055;-85
2023/03/25 03:36:09;;;;;;;6.35;1.02;;;8.80;99.90;;;;;;4685995;30;20050;-86
2023/03/25 03:38:59;;;;;;;11.63;1.50;;;8.80;99.90;;;;;;4690145;30;20112;-86
2023/03/25 03:41:27;;;;;;;8.95;1.33;;;9.70;99.90;;;;;;4673021;30;20058;-86
2023/03/25 03:44:12;;;;;;;11.02;1.10;;;8.80;99.90;;;;;;4687450;30;20066;-87
2023/03/25 03:46:42;;;;;;;11.00;0.90;;;8.80;99.90;;;;;;4684193;30;20136;-86
2023/03/25 03:49:14;;;;;;;9.20;1.20;;;8.70;99.90;;;;;;4721703;30;20337;-87
2023/03/25 03:52:00;;;;;;;9.73;1.30;;;9.00;99.90;;;;;;4765720;30;20040;-87
2023/03/25 03:54:30;;;;;;;11.50;1.50;;;8.80;99.90;;;;;;4756691;30;20055;-86
2023/03/25 03:57:07;;;;;;;14.07;1.30;;;9.00;99.90;;;;;;4773059;30;20126;-86
2023/03/25 03:59:45;;;;;;;12.27;1.50;;;8.90;99.90;;;;;;4758035;30;20107;-86
2023/03/25 04:02:58;;;;;;;14.68;2.78;;;8.90;99.90;;;;;;4771252;30;20490;-86
2023/03/25 04:05:29;;;;;;;10.02;2.25;;;8.90;99.90;;;;;;4699930;30;20140;-87
2023/03/25 04:08:11;;;;;;;12.30;2.40;;;8.90;99.90;;;;;;4706186;30;20064;-86
2023/03/25 04:10:51;;;;;;;14.32;1.50;;;8.80;99.90;;;;;;4712298;30;20091;-85
2023/03/25 04:13:19;;;;;;;15.32;1.20;;;8.80;99.90;;;;;;4708372;30;20072;-85
2023/03/25 04:15:45;;;;;;;13.75;2.30;;;8.90;99.90;;;;;;4724612;30;20093;-87
2023/03/25 04:18:11;;;;;;;8.93;1.63;;;8.80;99.90;;;;;;4724054;30;20549;-87
2023/03/25 04:20:43;;;;;;;14.45;2.08;;;8.80;99.90;;;;;;4721716;30;20416;-87
2023/03/25 04:23:14;;;;;;;11.82;2.08;;;8.70;99.90;;;;;;4700379;30;20484;-88
2023/03/25 04:25:41;;;;;;;13.20;1.80;;;8.80;99.90;;;;;;4706470;30;20061;-86
2023/03/25 04:28:12;;;;;;;13.35;2.30;;;8.80;99.90;;;;;;4704382;30;20052;-87
2023/03/25 04:30:39;;;;;;;11.02;1.90;;;8.70;99.90;;;;;;4696675;30;20099;-86
2023/03/25 04:33:06;;;;;;;11.55;1.95;;;8.70;99.90;;;;;;4724433;30;20053;-87
2023/03/25 04:35:32;;;;;;;17.33;1.42;;;9.20;99.90;;;;;;4720721;30;20079;-86
2023/03/25 04:37:58;;;;;;;10.38;0.90;;;8.80;99.90;;;;;;4769527;30;20413;-87
2023/03/25 04:40:24;;;;;;;15.77;1.30;;;8.70;99.90;;;;;;4769296;30;20039;-86
2023/03/25 04:42:52;;;;;;;10.27;1.40;;;8.70;99.90;;;;;;4757669;30;20130;-87
2023/03/25 04:45:18;;;;;;;17.55;3.00;;;8.70;99.90;;;;;;4769306;30;20087;-86
2023/03/25 04:47:46;;;;;;;15.63;1.67;;;8.70;99.90;;;;;;4770106;30;20044;-87
2023/03/25 04:50:24;;;;;;;11.77;1.58;;;8.80;99.90;;;;;;4769515;30;20505;-86
2023/03/25 04:52:51;;;;;;;7.70;1.15;;;8.70;99.90;;;;;;4766699;30;20131;-86
2023/03/25 04:55:19;;;;;;;13.18;1.58;;;8.90;99.90;;;;;;4755999;30;20056;-86
2023/03/25 04:57:49;;;;;;;16.23;1.60;;;8.70;99.90;;;;;;4774142;30;20058;-87
2023/03/25 05:00:21;;;;;;;10.10;1.60;;;8.70;99.90;;;;;;4773635;30;20457;-87
2023/03/25 05:02:50;;;;;;;7.07;1.30;;;8.70;99.90;;;;;;4767043;30;20047;-86
2023/03/25 05:05:17;;;;;;;13.98;1.80;;;8.80;99.90;;;;;;4776022;30;20130;-85
2023/03/25 05:07:45;;;;;;;11.77;1.90;;;8.80;99.90;;;;;;4772782;30;20127;-86
2023/03/25 05:10:12;;;;;;;8.75;1.63;;;8.80;99.90;;;;;;4772259;30;20052;-86
2023/03/25 05:12:37;;;;;;;12.60;1.77;;;9.10;99.90;;;;;;4770165;30;20054;-86
2023/03/25 05:15:04;;;;;;;11.48;1.52;;;9.00;99.90;;;;;;4768114;30;20494;-86
2023/03/25 05:17:29;;;;;;;14.35;2.28;;;8.70;99.90;;;;;;4776324;30;20075;-85
2023/03/25 05:19:55;;;;;;;15.18;1.92;;;8.80;99.90;;;;;;4769491;30;20529;-86
2023/03/25 05:22:22;;;;;;;14.05;1.20;;;9.50;99.90;;;;;;4755965;30;20093;-86
2023/03/25 05:24:47;;;;;;;13.73;2.17;;;8.80;99.90;;;;;;4772333;30;20055;-86
2023/03/25 05:27:13;;;;;;;12.93;1.83;;;9.10;99.90;;;;;;4765588;30;20058;-85
2023/03/25 05:29:39;;;;;;;13.50;1.45;;;8.80;99.90;;;;;;4772704;30;20058;-86
2023/03/25 05:32:05;;;;;;;9.70;1.48;;;8.80;99.90;;;;;;4771865;30;20158;-85
2023/03/25 05:34:31;;;;;;;12.02;1.50;;;8.70;99.90;;;;;;4778959;30;20036;-86
2023/03/25 05:36:56;;;;;;;14.35;1.55;;;8.80;99.90;;;;;;4765483;30;20048;-87
2023/03/25 05:39:23;;;;;;;10.75;1.95;;;8.70;99.90;;;;;;4769082;30;20039;-87
2023/03/25 05:41:49;;;;;;;15.63;1.63;;;9.70;99.90;;;;;;4778688;30;20081;-86
2023/03/25 05:44:17;;;;;;;14.80;1.80;;;8.70;99.90;;;;;;4771988;30;20509;-87
2023/03/25 05:46:43;;;;;;;13.38;2.10;;;8.80;99.90;;;;;;4763726;30;20048;-88
2023/03/25 05:49:09;;;;;;;6.60;1.20;;;9.20;99.90;;;;;;4772671;30;20047;-87
2023/03/25 05:51:36;;;;;;;5.85;1.25;;;9.00;99.90;;;;;;4788811;30;20055;-86
2023/03/25 05:54:02;;;;;;;12.85;1.60;;;8.80;99.90;;;;;;4768057;30;20138;-85
2023/03/25 05:56:28;;;;;;;11.93;1.65;;;8.80;99.90;;;;;;4765804;30;20123;-86
2023/03/25 05:58:56;;;;;;;14.45;1.67;;;9.40;99.90;;;;;;4780039;30;20083;-85
2023/03/25 06:01:22;;;;;;;10.73;1.70;;;9.00;99.90;;;;;;4776056;29;20047;-85
2023/03/25 06:03:47;;;;;;;15.93;2.13;;;8.80;99.90;;;;;;4769344;30;20059;-86
2023/03/25 06:06:17;;;;;;;9.60;1.40;;;8.90;99.90;;;;;;4772327;30;20119;-86
2023/03/25 06:08:51;;;;;;;13.20;1.48;;;8.80;99.90;;;;;;4771233;30;20052;-86
2023/03/25 06:11:18;;;;;;;15.02;1.75;;;8.80;99.90;;;;;;4766657;30;20485;-86
2023/03/25 06:13:48;;;;;;;12.63;1.35;;;9.50;99.90;;;;;;4773642;30;20056;-85
2023/03/25 06:16:26;;;;;;;10.07;1.60;;;8.80;99.90;;;;;;4762198;30;20089;-87
2023/03/25 06:18:55;;;;;;;13.77;1.90;;;8.80;99.90;;;;;;4755025;30;20051;-86
2023/03/25 06:21:28;;;;;;;19.33;1.75;;;8.80;99.90;;;;;;4771891;30;20059;-85
2023/03/25 06:23:56;;;;;;;17.35;2.22;;;9.70;99.90;;;;;;4760805;30;20079;-85
2023/03/25 06:26:23;;;;;;;14.20;2.05;;;8.80;99.90;;;;;;4779651;30;20043;-85
2023/03/25 06:28:49;;;;;;;11.75;1.30;;;9.10;99.90;;;;;;4773201;30;20052;-85
2023/03/25 06:31:21;;;;;;;11.55;1.27;;;9.30;99.90;;;;;;4765398;30;20122;-85
2023/03/25 06:33:49;;;;;;;13.45;1.85;;;8.90;99.90;;;;;;4773702;30;20055;-85
2023/03/25 06:36:17;;;;;;;12.40;2.60;;;9.30;99.90;;;;;;4764743;30;20067;-85
2023/03/25 06:38:47;;;;;;;11.38;1.40;;;8.80;99.90;;;;;;4771538;30;20048;-85
2023/03/25 06:41:14;;;;;;;16.60;1.73;;;9.00;99.90;;;;;;4770846;30;20040;-85
2023/03/25 06:43:40;;;;;;;8.27;1.55;;;9.10;99.90;;;;;;4762497;30;20050;-85
2023/03/25 06:46:06;;;;;;;11.85;1.88;;;8.90;99.90;;;;;;4770747;30;20052;-85
2023/03/25 06:48:32;;;;;;;14.30;1.70;;;8.90;99.90;;;;;;4766834;30;20050;-86
2023/03/25 06:50:59;;;;;;;10.88;1.35;;;9.30;99.90;;;;;;4770102;30;20051;-85
2023/03/25 06:53:25;;;;;;;11.40;1.35;;;9.40;99.90;;;;;;4770756;30;20055;-86
2023/03/25 06:55:51;;;;;;;9.23;1.42;;;8.80;99.90;;;;;;4770503;30;20059;-85
2023/03/25 06:58:17;;;;;;;7.80;1.35;;;9.00;99.90;;;;;;4744200;30;20049;-85
2023/03/25 07:00:42;;;;;;;13.75;1.30;;;8.80;99.90;;;;;;4770928;30;20047;-85
2023/03/25 07:03:09;;;;;;;13.73;1.33;;;8.80;99.90;;;;;;4768061;30;20058;-85
2023/03/25 07:05:35;;;;;;;11.40;1.92;;;9.10;99.90;;;;;;4766264;30;20047;-85
2023/03/25 07:08:01;;;;;;;12.40;2.38;;;8.90;99.90;;;;;;4778346;30;20371;-85
2023/03/25 07:10:26;;;;;;;18.90;2.63;;;9.30;99.90;;;;;;4767567;30;20513;-85
2023/03/25 07:12:52;;;;;;;11.50;1.58;;;9.60;99.90;;;;;;4760493;30;20055;-86
2023/03/25 07:15:18;;;;;;;10.40;1.33;;;8.90;99.90;;;;;;4768971;30;20483;-85
2023/03/25 07:17:43;;;;;;;9.93;1.55;;;8.80;99.90;;;;;;4760021;30;20055;-85
2023/03/25 07:20:10;;;;;;;7.05;1.23;;;10.10;99.90;;;;;;4770304;30;20047;-85
2023/03/25 07:22:36;;;;;;;10.18;1.23;;;8.90;99.90;;;;;;4758437;30;20051;-85
2023/03/25 07:25:01;;;;;;;6.38;1.40;;;9.00;99.90;;;;;;4770714;30;20448;-85
2023/03/25 07:27:27;;;;;;;6.97;1.23;;;8.90;99.90;;;;;;4776845;30;20563;-85
2023/03/25 07:29:53;;;;;;;9.55;0.85;;;9.90;99.90;;;;;;4766725;30;20075;-85
2023/03/25 07:32:19;;;;;;;3.45;0.70;;;9.10;99.90;;;;;;4772540;30;20047;-86
2023/03/25 07:34:44;;;;;;;5.68;0.80;;;8.90;99.90;;;;;;4775792;30;20067;-86
2023/03/25 07:37:10;;;;;;;9.52;1.45;;;9.80;99.90;;;;;;4755058;30;20047;-86
2023/03/25 07:39:36;;;;;;;3.03;0.70;;;8.80;99.90;;;;;;4771972;30;20058;-87
2023/03/25 07:42:02;;;;;;;4.47;0.55;;;8.70;99.90;;;;;;4775669;30;20051;-85
2023/03/25 07:44:27;;;;;;;5.00;0.70;;;8.60;99.90;;;;;;4752991;30;20126;-87
2023/03/25 07:46:53;;;;;;;5.72;0.45;;;8.60;99.90;;;;;;4759738;30;20093;-86
2023/03/25 07:49:19;;;;;;;4.03;0.60;;;8.50;99.90;;;;;;4769315;30;20043;-86
2023/03/25 07:51:45;;;;;;;7.47;0.70;;;8.40;99.90;;;;;;4769930;30;20091;-86
2023/03/25 07:54:11;;;;;;;6.70;0.93;;;8.40;99.90;;;;;;4772187;30;20410;-86
2023/03/25 07:56:37;;;;;;;8.75;0.93;;;8.60;99.90;;;;;;4755673;30;20055;-86
2023/03/25 07:59:03;;;;;;;8.13;1.63;;;8.70;99.90;;;;;;4773623;30;20051;-86
2023/03/25 08:01:29;;;;;;;7.28;1.00;;;8.90;99.90;;;;;;4769521;30;20064;-85
2023/03/25 08:03:55;;;;;;;8.23;1.20;;;8.40;99.90;;;;;;4758935;30;20051;-83
2023/03/25 08:06:24;;;;;;;6.70;1.05;;;8.40;99.90;;;;;;4763053;30;20049;-86
2023/03/25 08:08:50;;;;;;;11.07;1.77;;;8.50;99.90;;;;;;4764665;30;20047;-86
2023/03/25 08:11:16;;;;;;;6.65;1.08;;;8.50;99.90;;;;;;4774544;30;20058;-85
2023/03/25 08:13:41;;;;;;;8.73;1.15;;;8.60;99.90;;;;;;4767494;30;20164;-85
2023/03/25 08:16:14;;;;;;;8.38;0.90;;;9.40;99.90;;;;;;4770001;30;20106;-85
2023/03/25 08:18:43;;;;;;;5.32;1.23;;;8.70;99.90;;;;;;4769391;30;20143;-84
2023/03/25 08:21:10;;;;;;;15.10;0.93;;;9.00;99.90;;;;;;4769716;30;20044;-85
2023/03/25 08:23:36;;;;;;;8.20;0.90;;;8.90;99.90;;;;;;4767487;30;20051;-87
2023/03/25 08:26:04;;;;;;;9.18;1.08;;;9.30;99.90;;;;;;4761442;30;20050;-86
2023/03/25 08:28:30;;;;;;;9.52;1.30;;;8.90;99.90;;;;;;4775034;30;20098;-84
2023/03/25 08:30:57;;;;;;;11.38;1.38;;;8.90;99.90;;;;;;4773046;30;20083;-84
2023/03/25 08:33:38;;;;;;;10.43;1.30;;;8.90;99.90;;;;;;4768399;30;20097;-85
2023/03/25 08:36:04;;;;;;;8.52;1.08;;;9.80;99.90;;;;;;4761665;30;20065;-85
2023/03/25 08:38:30;;;;;;;7.88;1.00;;;8.90;99.90;;;;;;4771874;30;20058;-85
2023/03/25 08:40:59;;;;;;;11.68;0.90;;;9.00;99.90;;;;;;4770417;30;20422;-85
2023/03/25 08:43:25;;;;;;;6.68;0.80;;;8.90;99.90;;;;;;4772823;30;20051;-85
2023/03/25 08:45:52;;;;;;;6.07;0.88;;;8.90;99.90;;;;;;4742609;30;20050;-85
2023/03/25 08:48:17;;;;;;;9.38;1.13;;;8.90;99.90;;;;;;4782092;30;20047;-84
2023/03/25 08:50:43;;;;;;;5.07;0.73;;;9.00;99.90;;;;;;4782617;30;20073;-84
2023/03/25 08:53:09;;;;;;;3.88;1.20;;;9.20;99.90;;;;;;4773294;30;20044;-85
2023/03/25 08:55:39;;;;;;;9.30;1.17;;;8.90;99.90;;;;;;4778981;30;20059;-85
2023/03/25 08:58:06;;;;;;;6.07;0.90;;;8.90;99.90;;;;;;4770318;30;20079;-85
2023/03/25 09:00:33;;;;;;;10.80;1.00;;;9.00;99.90;;;;;;4772168;30;20127;-85
2023/03/25 09:02:59;;;;;;;8.55;0.90;;;9.90;99.90;;;;;;4763438;30;20108;-86
2023/03/25 09:05:25;;;;;;;5.10;0.70;;;9.30;99.90;;;;;;4750099;30;20047;-87
2023/03/25 09:07:51;;;;;;;10.02;0.90;;;9.50;99.90;;;;;;4762376;30;20094;-84
2023/03/25 09:10:17;;;;;;;13.32;1.45;;;9.90;99.90;;;;;;4773928;30;20102;-85
2023/03/25 09:12:43;;;;;;;6.28;0.88;;;10.00;99.90;;;;;;4772840;30;20044;-86
2023/03/25 09:15:10;;;;;;;6.93;0.88;;;10.60;99.90;;;;;;4763053;30;20386;-84
2023/03/25 09:17:36;;;;;;;7.68;0.98;;;10.00;99.90;;;;;;4766776;30;20058;-84
2023/03/25 09:20:04;;;;;;;9.38;2.08;;;10.10;99.90;;;;;;4776725;30;20044;-85
2023/03/25 09:22:29;;;;;;;5.40;1.02;;;10.10;99.90;;;;;;4779293;30;20039;-88
2023/03/25 09:24:55;;;;;;;6.00;1.20;;;10.20;99.90;;;;;;4763120;30;20406;-86
2023/03/25 09:27:21;;;;;;;9.00;1.15;;;10.30;99.90;;;;;;4763870;30;20410;-83
2023/03/25 09:29:46;;;;;;;10.38;1.08;;;10.30;99.90;;;;;;4771957;30;20088;-84
2023/03/25 09:32:13;;;;;;;12.68;1.50;;;10.30;99.90;;;;;;4772361;30;20074;-83
2023/03/25 09:34:39;;;;;;;4.78;0.88;;;10.50;99.90;;;;;;4765498;30;20052;-84
2023/03/25 09:37:05;;;;;;;7.88;1.05;;;10.20;99.90;;;;;;4772355;30;20413;-85
2023/03/25 09:39:31;;;;;;;7.43;1.40;;;10.30;99.90;;;;;;4772138;30;20126;-85
2023/03/25 09:42:26;;;;;;;6.90;0.93;;;10.30;99.90;;;;;;4773117;30;20104;-85
2023/03/25 09:45:05;;;;;;;12.80;1.17;;;10.40;99.90;;;;;;4772772;30;20048;-85
2023/03/25 09:47:33;;;;;;;3.58;0.65;;;10.40;99.90;;;;;;4772588;30;20062;-85
2023/03/25 09:50:11;;;;;;;4.78;0.98;;;10.50;99.90;;;;;;4755673;30;20055;-85
2023/03/25 09:53:02;;;;;;;10.98;1.63;;;10.30;99.90;;;;;;4761783;30;20052;-86
2023/03/25 09:55:37;;;;;;;8.63;0.93;;;10.70;99.90;;;;;;4766121;30;20043;-85
2023/03/25 09:58:35;;;;;;;5.72;0.77;;;10.60;99.90;;;;;;4770607;30;20528;-82
2023/03/25 10:01:25;;;;;;;6.85;0.93;;;10.60;99.90;;;;;;4705890;30;20069;-85
2023/03/25 10:03:57;;;;;;;8.98;1.15;;;10.70;99.90;;;;;;4689289;30;20058;-83
2023/03/25 10:06:25;;;;;;;5.60;0.90;;;10.80;99.90;;;;;;4698881;30;20072;-85
2023/03/25 10:09:03;;;;;;;4.72;0.75;;;10.80;99.90;;;;;;4694435;30;20064;-85
2023/03/25 10:11:50;;;;;;;8.65;1.40;;;10.60;99.90;;;;;;4706451;30;20076;-85
2023/03/25 10:14:26;;;;;;;13.82;2.28;;;10.60;99.90;;;;;;4708834;30;20243;-84
2023/03/25 10:17:20;;;;;;;8.98;0.90;;;10.70;99.90;;;;;;4706069;30;20456;-85
2023/03/25 10:20:06;;;;;;;11.98;1.20;;;10.30;99.90;;;;;;4698548;30;20071;-85
2023/03/25 10:22:49;;;;;;;3.83;0.63;;;10.20;99.90;;;;;;4698432;30;20064;-84
2023/03/25 10:25:21;;;;;;;267.67;239.77;;;10.20;99.90;;;;;;4700967;30;20127;-86
2023/03/25 10:27:54;;;;;;;426.38;299.13;;;10.20;99.90;;;;;;4715078;30;20131;-86
2023/03/25 10:30:40;;;;;;;9.82;1.13;;;10.20;99.90;;;;;;4714834;30;20127;-85
2023/03/25 10:33:17;;;;;;;;;;;10.30;99.90;;;;;;4700476;30;20107;-85
2023/03/25 10:35:47;;;;;;;9.90;2.35;;;10.50;99.90;;;;;;4714964;30;19926;-84
2023/03/25 10:38:23;;;;;;;9.00;0.70;;;10.40;99.90;;;;;;4714896;30;20064;-81
2023/03/25 10:41:20;;;;;;;8.40;1.10;;;10.30;99.90;;;;;;4729634;30;20541;-85
2023/03/25 10:43:46;;;;;;;6.90;1.10;;;10.50;99.90;;;;;;4723240;30;20068;-85
2023/03/25 10:46:37;;;;;;;6.93;1.13;;;10.60;99.90;;;;;;4702869;30;20451;-85
2023/03/25 10:49:03;;;;;;;5.55;1.10;;;10.60;99.90;;;;;;4724276;30;20067;-85
2023/03/25 10:51:34;;;;;;;9.02;0.93;;;10.60;99.90;;;;;;4701020;30;20128;-85
2023/03/25 10:54:00;;;;;;;10.30;0.80;;;10.60;99.90;;;;;;4722547;30;20072;-85
2023/03/25 10:56:52;;;;;;;3.40;0.80;;;10.60;99.90;;;;;;4722694;30;20095;-86
2023/03/25 10:59:36;;;;;;;12.13;0.85;;;10.80;99.90;;;;;;4677254;30;20127;-85
2023/03/25 11:02:21;;;;;;;11.35;0.80;;;10.80;99.90;;;;;;4684723;30;20058;-85
2023/03/25 11:04:51;;;;;;;7.57;1.08;;;10.80;99.90;;;;;;4678832;30;20227;-85
2023/03/25 11:07:27;;;;;;;6.38;0.98;;;10.80;99.90;;;;;;4689905;30;20091;-86
2023/03/25 11:09:52;;;;;;;10.52;0.90;;;10.80;99.90;;;;;;4702953;30;20065;-86
2023/03/25 11:12:20;;;;;;;7.50;1.05;;;10.90;99.90;;;;;;4707846;30;20161;-84
2023/03/25 11:14:55;;;;;;;5.65;1.30;;;11.00;99.90;;;;;;4701448;30;20067;-86
2023/03/25 11:17:24;;;;;;;9.23;1.60;;;11.00;99.90;;;;;;4692605;30;20090;-85
2023/03/25 11:20:05;;;;;;;9.70;1.15;;;11.10;99.90;;;;;;4693359;30;20053;-84
2023/03/25 11:22:35;;;;;;;9.98;0.88;;;11.10;99.90;;;;;;4730971;30;20547;-84
2023/03/25 11:25:28;;;;;;;5.80;0.60;;;11.40;99.90;;;;;;4749531;30;20147;-85
2023/03/25 11:28:04;;;;;;;10.52;1.02;;;11.10;99.90;;;;;;4687812;30;20057;-83
2023/03/25 11:30:30;;;;;;;6.45;1.13;;;11.00;99.90;;;;;;4681417;30;20528;-85
2023/03/25 11:33:06;;;;;;;12.68;1.10;;;11.10;99.90;;;;;;4682379;30;20068;-88
2023/03/25 11:35:42;;;;;;;3.75;0.98;;;11.00;99.90;;;;;;4669580;30;20248;-86
2023/03/25 11:38:18;;;;;;;4.35;0.80;;;11.10;99.90;;;;;;4669140;30;20052;-84
2023/03/25 11:40:55;;;;;;;7.22;0.70;;;11.10;99.90;;;;;;4683126;30;20165;-83
2023/03/25 11:43:23;;;;;;;5.05;0.80;;;11.10;99.90;;;;;;4674593;30;20432;-86
2023/03/25 11:45:49;;;;;;;5.25;0.82;;;11.20;99.90;;;;;;4680270;30;20159;-83
2023/03/25 11:48:23;;;;;;;6.30;1.02;;;11.20;99.90;;;;;;4680439;30;20097;-83
2023/03/25 11:50:58;;;;;;;4.93;0.93;;;11.30;99.90;;;;;;4680239;30;20057;-86
2023/03/25 11:53:26;;;;;;;6.35;1.00;;;11.40;99.90;;;;;;4674250;30;20748;-85
2023/03/25 11:56:00;;;;;;;6.20;0.80;;;11.60;99.90;;;;;;4680118;30;20541;-86
2023/03/25 11:58:31;;;;;;;4.38;0.70;;;11.70;99.90;;;;;;4673143;30;20081;-85
2023/03/25 12:01:37;;;;;;;5.10;0.65;;;11.70;99.90;;;;;;4680719;30;20409;-85
2023/03/25 12:04:19;;;;;;;7.38;0.90;;;11.80;99.90;;;;;;4618672;30;20198;-87
2023/03/25 12:07:09;;;;;;;4.18;0.90;;;11.90;99.90;;;;;;4674379;30;20564;-88
2023/03/25 12:09:35;;;;;;;9.93;0.70;;;11.80;99.90;;;;;;4666704;30;20140;-88
2023/03/25 12:12:25;;;;;;;4.88;0.70;;;11.70;99.90;;;;;;4673254;30;20212;-88
2023/03/25 12:15:17;;;;;;;9.80;1.25;;;11.70;99.90;;;;;;4666304;30;20073;-84
2023/03/25 12:18:11;;;;;;;8.02;0.90;;;11.70;99.90;;;;;;4679741;30;20145;-84
2023/03/25 12:20:57;;;;;;;6.45;1.10;;;11.50;99.90;;;;;;4666673;30;20068;-88
2023/03/25 12:23:43;;;;;;;4.80;1.60;;;11.50;99.90;;;;;;4680302;30;20049;-89
2023/03/25 12:26:46;;;;;;;6.60;2.00;;;11.50;99.90;;;;;;4673004;30;20108;-84
2023/03/25 12:29:27;;;;;;;5.45;0.70;;;11.50;99.90;;;;;;4680325;30;20089;-84
2023/03/25 12:32:07;;;;;;;6.15;0.85;;;11.50;99.90;;;;;;4672509;30;20070;-88
2023/03/25 12:35:07;;;;;;;5.28;0.57;;;11.60;99.90;;;;;;4667265;30;20128;-91
2023/03/25 12:37:48;;;;;;;5.47;0.70;;;11.70;99.90;;;;;;4676192;30;20132;-85
2023/03/25 12:40:20;;;;;;;4.68;0.52;;;11.70;99.90;;;;;;4746555;30;20091;-87
2023/03/25 12:43:08;;;;;;;3.35;0.60;;;11.60;99.90;;;;;;4775495;30;20054;-85
2023/03/25 12:45:56;;;;;;;5.53;0.80;;;11.50;99.90;;;;;;4769083;30;20083;-84
2023/03/25 12:48:47;;;;;;;2.60;0.65;;;11.50;99.90;;;;;;4762431;30;20051;-88
2023/03/25 12:51:22;;;;;;;6.40;0.80;;;11.50;99.90;;;;;;4777368;30;20074;-85
2023/03/25 12:54:10;;;;;;;6.85;0.60;;;11.40;99.90;;;;;;4772760;30;20052;-86
2023/03/25 12:57:06;;;;;;;7.97;0.80;;;11.50;99.90;;;;;;4763928;30;20558;-89
2023/03/25 12:59:40;;;;;;;3.83;0.50;;;11.60;99.90;;;;;;4771791;30;20058;-86
2023/03/25 13:02:53;;;;;;;6.93;0.60;;;11.60;99.90;;;;;;4752795;30;20430;-86
2023/03/25 13:05:30;;;;;;;5.60;0.60;;;11.40;99.90;;;;;;4757522;30;20051;-89
2023/03/25 13:08:13;;;;;;;5.00;0.80;;;11.30;99.90;;;;;;4772485;30;20052;-88
2023/03/25 13:10:42;;;;;;;5.82;0.68;;;11.20;99.90;;;;;;4774607;30;20074;-87
2023/03/25 13:13:23;;;;;;;4.05;0.50;;;11.10;99.90;;;;;;4760043;30;20087;-87
2023/03/25 13:16:00;;;;;;;5.28;0.88;;;10.90;99.90;;;;;;4761456;30;20495;-86